x

Big Carlos Pass, Fl (bgcf1) Weather Station

8:54pm - Fri 27th Mar 2015 All times are EDT. -4 hours from GMT.

  • Wind
    22mph, 25mph gusts
  • Air Temp 71°f
  • Sea Pressure 1013.4mb
  • Big Carlos Pass, Fl
  • Big Carlos Pass, Fl

More Historic Weather Station data

Upgrade to MSW Pro to gain access to the past 30 days of data for over 8000 Wavebouys and Weather Stations around the globe.

Join Pro

Comparision Forecast

View Surf forecast
   
Fri 03/27 8:54pm 22 25 mph 1013.4mb 71f
8:48pm 22 24 mph 1013mb 71f
7:54pm 18 22 mph 1013.4mb 71f
7:48pm 17 21 mph 1013.3mb 70f
6:54pm 16 20 mph 1013.4mb 70f
6:48pm 16 22 mph 1013.5mb 71f
5:54pm 9 14 mph 1013.2mb 70f
5:48pm 9 14 mph 1013.1mb 70f
4:54pm 13 21 mph 1012.9mb 70f
4:48pm 13 22 mph 1013mb 70f
3:54pm 11 15 mph 1012.7mb 69f
3:48pm 16 20 mph 1012.8mb 69f
2:54pm 14 16 mph 1012.3mb 78f
2:48pm 15 17 mph 1012.5mb 78f
1:54pm 16 18 mph 1012.8mb 78f
1:48pm 14 16 mph 1012.8mb 78f
11:54am 18 21 mph 1013.5mb 78f
11:48am 18 22 mph 1013.5mb 78f
10:54am 15 18 mph 1013.5mb 78f
10:48am 15 17 mph 1013.5mb 78f
9:54am 15 17 mph 1012.9mb 78f
9:48am 15 18 mph 1013.1mb 78f
8:54am 17 21 mph 1012.4mb 78f
8:48am 17 22 mph 1012.5mb 78f
7:54am 15 17 mph 1012.5mb 77f
7:48am 13 16 mph 1012.5mb 77f
6:54am 8 15 mph 1013.2mb 75f
6:48am 11 13 mph 1012.9mb 77f
5:54am 9 11 mph 1012.8mb 77f
5:48am 11 13 mph 1012.9mb 77f
4:54am 11 13 mph 1012.9mb 77f
4:48am 11 14 mph 1013mb 77f
3:54am 15 16 mph 1013.5mb 78f
3:48am 15 16 mph 1013.6mb 78f
2:54am 16 18 mph 1013.4mb 78f
2:48am 16 20 mph 1013.4mb 78f
1:54am 15 17 mph 1014mb 78f
1:48am 14 16 mph 1014.1mb 78f
Thu 03/26 11:54pm 9 11 mph 1014.3mb 78f
11:48pm 9 13 mph 1014.4mb 78f
10:54pm 9 10 mph 1014.5mb 78f
10:48pm 8 10 mph 1014.5mb 78f
9:54pm 9 14 mph 1014.3mb 78f
9:48pm 10 14 mph 1014.2mb 78f
8:54pm 11 14 mph 1013.8mb 78f
8:48pm 10 14 mph 1013.7mb 78f
7:54pm 14 16 mph 1013.3mb 78f
7:48pm 11 15 mph 1013.3mb 78f
6:54pm 11 15 mph 1013.5mb 79f
6:48pm 11 14 mph 1013.4mb 79f
5:54pm 14 16 mph 1013.4mb 80f
5:48pm 14 16 mph 1013.4mb 80f
4:54pm 13 16 mph 1013.7mb 80f
4:48pm 13 16 mph 1013.8mb 80f
3:54pm 14 16 mph 1014.3mb 80f
3:48pm 14 16 mph 1014.4mb 80f
2:54pm 15 18 mph 1014.9mb 80f
2:48pm 16 20 mph 1014.9mb 80f
1:54pm 14 18 mph 1015.6mb 80f
1:48pm 16 20 mph 1015.7mb 80f
12:54pm 14 17 mph 1016.6mb 80f
12:48pm 14 17 mph 1016.7mb 80f
11:54am 13 16 mph 1017.3mb 81f
11:48am 11 14 mph 1017.4mb 80f
10:54am 9 11 mph 1018.1mb 80f
10:48am 8 11 mph 1018.1mb 80f
9:54am 7 10 mph 1018.2mb 77f
9:48am 6 8 mph 1018.2mb 76f
8:54am 5 6 mph 1018mb 73f
8:48am 6 7 mph 1017.9mb 73f
7:54am 3 5 mph 1017.2mb 73f
7:48am 3 5 mph 1017.1mb 72f
6:54am 2 3 mph 1016.6mb 72f
6:48am 2
mph
1016.5mb 72f
5:54am 2 5 mph 1016.3mb 72f
5:48am 3 5 mph 1016.3mb 72f
4:54am 2 5 mph 1016.4mb 72f
4:48am 2
mph
1016.4mb 73f
3:54am 2
mph
1016.7mb 73f
3:48am 3 5 mph 1016.7mb 73f
2:54am 5 6 mph 1017.3mb 74f
2:48am 5
mph
1017.4mb 74f
1:54am 2 5 mph 1018.2mb 74f
1:48am 5 6 mph 1018.2mb 74f
12:54am 6 7 mph 1018.8mb 75f
12:48am 3 5 mph 1018.9mb 75f
Wed 03/25 11:54pm 5 6 mph 1019mb 75f
11:48pm 5 6 mph 1019mb 76f
10:54pm 5
mph
1019.1mb 77f
10:48pm 5
mph
1019mb 77f
9:54pm 5 6 mph 1018.9mb 77f
9:48pm 3 5 mph 1018.9mb 77f
8:54pm 6 7 mph 1018.6mb 77f
8:48pm 6 8 mph 1018.5mb 78f
7:54pm 5
mph
1018.4mb 78f
7:48pm 3 5 mph 1018.5mb 79f
6:54pm 6 9 mph 1018.3mb 79f
6:48pm 6 8 mph 1018.2mb 79f
5:54pm 8 9 mph 1018.3mb 78f
5:48pm 9 10 mph 1018.3mb 78f